Alton, Indiana
Current Conditions -  °F | °C
As of 11:58 PM on Friday 19 Dec 2014 (Local Time) from KFTK Reporting Station
Clear Clear  
Wind Chill: 22°   Ceiling: Unl
Heat Index: 28°   Visibility: 10mi
Dew Point: 22°   Wind: 6mph
Humidity: 77%   Direction: 50°NE
Pressure: 30.24"   Gusts: NA
Location:  38.1914°N, 86.3619°W
Report Text: KFTK 200458Z AUTO 05005KT 10SM CLR M02/M06 A3024 RMK AO2 SLP251 T10201056 400281030
Loading
Personal Weather Stations






























Interactive Weather Map New forecast layout! Learn more

10-Day Weather Forecast

Advertisements
Track Severe Weather on mobile